Time;durP1;ratioP1;P1;durP2;ratioP2;P2;SDS_P1;SDS_P2;PMS_P1;PMS_P2;Temp;Humidity;BMP_temperature;BMP_pressure;BME280_temperature;BME280_humidity;BME280_pressure;Samples;Min_cycle;Max_cycle;Signal;HPM_P1;HPM_P2
2021/04/14 00:00:08;;;;;;;1.77;1.38;;;2.90;99.90;;;;;;4697866;30;20464;-79
2021/04/14 00:02:35;;;;;;;1.13;1.03;;;2.80;99.90;;;;;;4688575;30;20422;-79
2021/04/14 00:05:01;;;;;;;1.35;1.25;;;2.80;99.90;;;;;;4695727;30;20507;-79
2021/04/14 00:07:27;;;;;;;1.30;1.20;;;2.80;99.90;;;;;;4681685;30;20919;-79
2021/04/14 00:09:52;;;;;;;1.10;1.10;;;2.70;99.90;;;;;;4695129;30;20422;-79
2021/04/14 00:12:18;;;;;;;2.97;1.30;;;2.70;99.90;;;;;;4697043;30;20447;-79
2021/04/14 00:14:44;;;;;;;1.15;1.13;;;2.60;99.90;;;;;;4697138;30;20837;-79
2021/04/14 00:17:10;;;;;;;2.33;1.13;;;2.60;99.90;;;;;;4694988;30;20457;-79
2021/04/14 00:19:36;;;;;;;1.38;1.20;;;2.60;99.90;;;;;;4686220;30;20514;-78
2021/04/14 00:22:01;;;;;;;1.30;1.20;;;2.50;99.90;;;;;;4694894;30;20463;-79
2021/04/14 00:24:32;;;;;;;2.03;1.20;;;2.50;99.90;;;;;;4695482;30;20426;-79
2021/04/14 00:26:57;;;;;;;5.10;1.30;;;2.50;99.90;;;;;;4695587;30;20450;-78
2021/04/14 00:29:23;;;;;;;2.70;1.30;;;2.50;99.90;;;;;;4695803;30;20497;-79
2021/04/14 00:31:49;;;;;;;1.20;1.10;;;2.40;99.90;;;;;;4694185;30;21058;-79
2021/04/14 00:34:17;;;;;;;1.60;1.40;;;2.40;99.90;;;;;;4690606;30;20794;-79
2021/04/14 00:36:43;;;;;;;1.50;1.40;;;2.40;99.90;;;;;;4680907;30;20464;-79
2021/04/14 00:39:11;;;;;;;1.45;1.35;;;2.30;99.90;;;;;;4693454;30;20429;-79
2021/04/14 00:41:37;;;;;;;1.33;1.20;;;2.30;99.90;;;;;;4695996;30;20417;-79
2021/04/14 00:44:06;;;;;;;1.30;1.20;;;2.20;99.90;;;;;;4692458;30;21480;-79
2021/04/14 00:46:35;;;;;;;1.35;1.25;;;2.20;99.90;;;;;;4694630;30;20434;-79
2021/04/14 00:49:00;;;;;;;1.42;1.33;;;2.20;99.90;;;;;;4693487;30;20427;-78
2021/04/14 00:51:27;;;;;;;1.30;1.20;;;2.10;99.90;;;;;;4694273;30;20874;-79
2021/04/14 00:53:54;;;;;;;2.42;1.35;;;2.10;99.90;;;;;;4670701;30;20445;-79
2021/04/14 00:56:20;;;;;;;1.23;1.17;;;2.10;99.90;;;;;;4695870;30;20488;-78
2021/04/14 00:58:45;;;;;;;1.33;1.23;;;2.00;99.90;;;;;;4681948;30;20512;-78
2021/04/14 01:01:11;;;;;;;1.40;1.30;;;2.00;99.90;;;;;;4696180;30;20445;-78
2021/04/14 01:03:37;;;;;;;1.13;1.02;;;1.90;99.90;;;;;;4695300;30;20918;-78
2021/04/14 01:06:11;;;;;;;2.33;1.33;;;1.90;99.90;;;;;;4693486;30;20951;-79
2021/04/14 01:08:37;;;;;;;1.40;1.30;;;1.90;99.90;;;;;;4680664;30;20483;-79
2021/04/14 01:11:07;;;;;;;1.40;1.30;;;1.80;99.90;;;;;;4694065;30;20450;-79
2021/04/14 01:13:32;;;;;;;1.40;1.30;;;1.80;99.90;;;;;;4691591;30;20486;-78
2021/04/14 01:15:58;;;;;;;2.40;1.30;;;1.80;99.90;;;;;;4674087;30;20438;-79
2021/04/14 01:18:31;;;;;;;1.42;1.25;;;1.80;99.90;;;;;;4695260;30;20437;-78
2021/04/14 01:20:57;;;;;;;1.20;1.10;;;1.80;99.90;;;;;;4665767;30;20434;-79
2021/04/14 01:23:24;;;;;;;2.00;1.70;;;1.70;99.90;;;;;;4694549;30;20943;-79
2021/04/14 01:25:50;;;;;;;1.90;1.40;;;1.70;99.90;;;;;;4680231;30;20438;-79
2021/04/14 01:28:18;;;;;;;1.52;1.42;;;1.70;99.90;;;;;;4696718;30;20509;-78
2021/04/14 01:30:45;;;;;;;1.13;1.10;;;1.60;99.90;;;;;;4680730;30;20516;-79
2021/04/14 01:33:11;;;;;;;1.40;1.20;;;1.60;99.90;;;;;;4684930;30;20441;-79
2021/04/14 01:35:37;;;;;;;1.83;1.20;;;1.60;99.90;;;;;;4678774;30;20436;-79
2021/04/14 01:38:02;;;;;;;1.77;1.42;;;1.50;99.90;;;;;;4681715;30;20442;-79
2021/04/14 01:40:28;;;;;;;1.33;1.23;;;1.50;99.90;;;;;;4685581;30;20450;-79
2021/04/14 01:42:54;;;;;;;2.50;1.30;;;1.50;99.90;;;;;;4679823;30;21037;-79
2021/04/14 01:45:25;;;;;;;2.35;1.42;;;1.50;99.90;;;;;;4681801;30;20580;-79
2021/04/14 01:47:51;;;;;;;2.60;1.20;;;1.50;99.90;;;;;;4680149;30;20539;-78
2021/04/14 01:50:17;;;;;;;1.27;1.17;;;1.60;99.90;;;;;;4687948;30;20419;-79
2021/04/14 01:52:43;;;;;;;1.40;1.30;;;1.50;99.90;;;;;;4693882;30;20433;-79
2021/04/14 01:55:09;;;;;;;1.40;1.30;;;1.60;99.90;;;;;;4689011;30;20454;-79
2021/04/14 01:57:34;;;;;;;1.15;1.15;;;1.60;99.90;;;;;;4678792;30;20516;-79
2021/04/14 02:00:00;;;;;;;1.30;1.20;;;1.50;99.90;;;;;;4686322;30;21021;-79
2021/04/14 02:02:26;;;;;;;2.30;1.45;;;1.60;99.90;;;;;;4693691;30;20429;-81
2021/04/14 02:04:51;;;;;;;1.48;1.38;;;1.60;99.90;;;;;;4693471;30;20436;-79
2021/04/14 02:07:17;;;;;;;1.40;1.30;;;1.70;99.90;;;;;;4679303;30;20480;-78
2021/04/14 02:09:43;;;;;;;1.38;1.30;;;1.60;99.90;;;;;;4693892;30;20482;-79
2021/04/14 02:12:09;;;;;;;2.20;1.40;;;1.60;99.90;;;;;;4681496;30;20449;-79
2021/04/14 02:14:35;;;;;;;1.35;1.25;;;1.60;99.90;;;;;;4692599;30;20974;-79
2021/04/14 02:17:01;;;;;;;1.35;1.23;;;1.60;99.90;;;;;;4692977;30;20418;-78
2021/04/14 02:19:27;;;;;;;1.45;1.35;;;1.50;99.90;;;;;;4694064;30;20445;-79
2021/04/14 02:21:52;;;;;;;1.65;1.45;;;1.50;99.90;;;;;;4694969;30;20426;-80
2021/04/14 02:24:18;;;;;;;2.03;1.43;;;1.40;99.90;;;;;;4677138;30;20482;-78
2021/04/14 02:26:44;;;;;;;1.40;1.30;;;1.40;99.90;;;;;;4674738;30;20687;-79
2021/04/14 02:29:09;;;;;;;2.55;1.48;;;1.40;99.90;;;;;;4691271;30;20440;-78
2021/04/14 02:31:35;;;;;;;1.40;1.30;;;1.40;99.90;;;;;;4677829;30;20507;-78
2021/04/14 02:34:10;;;;;;;2.10;1.65;;;1.40;99.90;;;;;;4672500;30;20443;-78
2021/04/14 02:36:36;;;;;;;1.50;1.30;;;1.30;99.90;;;;;;4679446;30;20531;-78
2021/04/14 02:39:02;;;;;;;1.33;1.20;;;1.30;99.90;;;;;;4691897;30;20958;-79
2021/04/14 02:41:27;;;;;;;1.42;1.33;;;1.30;99.90;;;;;;4678638;30;20433;-79
2021/04/14 02:43:53;;;;;;;1.40;1.30;;;1.30;99.90;;;;;;4677822;30;20958;-79
2021/04/14 02:46:20;;;;;;;2.17;1.30;;;1.30;99.90;;;;;;4680736;30;20445;-78
2021/04/14 02:48:47;;;;;;;1.57;1.37;;;1.30;99.90;;;;;;4678356;30;20496;-78
2021/04/14 02:51:13;;;;;;;2.03;1.50;;;1.30;99.90;;;;;;4677290;30;20451;-78
2021/04/14 02:53:39;;;;;;;2.50;1.50;;;1.20;99.90;;;;;;4692389;30;20968;-79
2021/04/14 02:56:05;;;;;;;1.60;1.23;;;1.30;99.90;;;;;;4692361;30;20532;-79
2021/04/14 02:58:30;;;;;;;1.73;1.27;;;1.20;99.90;;;;;;4678053;30;20437;-78
2021/04/14 03:00:56;;;;;;;1.40;1.30;;;1.30;99.90;;;;;;4694789;30;20487;-79
2021/04/14 03:03:22;;;;;;;1.73;1.42;;;1.20;99.90;;;;;;4692362;30;20434;-78
2021/04/14 03:05:48;;;;;;;1.42;1.33;;;1.20;99.90;;;;;;4678697;30;20441;-79
2021/04/14 03:08:13;;;;;;;1.45;1.35;;;1.20;99.90;;;;;;4693006;30;20962;-79
2021/04/14 03:10:39;;;;;;;1.98;1.52;;;1.20;99.90;;;;;;4691525;30;20454;-78
2021/04/14 03:13:05;;;;;;;4.00;1.60;;;1.30;99.90;;;;;;4684363;30;20473;-79
2021/04/14 03:15:38;;;;;;;2.40;1.52;;;1.10;99.90;;;;;;4681396;30;20489;-79
2021/04/14 03:18:04;;;;;;;5.30;1.50;;;1.10;99.90;;;;;;4682479;30;20958;-78
2021/04/14 03:20:30;;;;;;;2.08;1.63;;;1.10;99.90;;;;;;4695560;30;20513;-79
2021/04/14 03:22:56;;;;;;;1.17;1.17;;;1.10;99.90;;;;;;4681645;30;20517;-78
2021/04/14 03:25:23;;;;;;;1.60;1.40;;;1.20;99.90;;;;;;4679697;30;20444;-78
2021/04/14 03:27:48;;;;;;;1.10;1.10;;;1.00;99.90;;;;;;4699617;30;20794;-79
2021/04/14 03:30:14;;;;;;;2.05;1.30;;;1.10;99.90;;;;;;4690861;30;20507;-79
2021/04/14 03:32:40;;;;;;;1.60;1.50;;;1.00;99.90;;;;;;4703114;30;20559;-79
2021/04/14 03:35:13;;;;;;;1.50;1.40;;;1.00;99.90;;;;;;4682733;30;20513;-78
2021/04/14 03:37:38;;;;;;;1.90;1.23;;;1.00;99.90;;;;;;4695987;30;20468;-80
2021/04/14 03:40:05;;;;;;;4.97;3.20;;;0.90;99.90;;;;;;4680569;30;20425;-79
2021/04/14 03:42:30;;;;;;;3.38;3.08;;;0.90;99.90;;;;;;4694936;30;20822;-78
2021/04/14 03:45:01;;;;;;;4.45;2.67;;;0.90;99.90;;;;;;4695875;30;20426;-78
2021/04/14 03:47:27;;;;;;;1.95;1.83;;;0.90;99.90;;;;;;4689904;30;20652;-78
2021/04/14 03:49:53;;;;;;;2.17;1.70;;;0.80;99.90;;;;;;4691448;30;20431;-78
2021/04/14 03:52:19;;;;;;;1.73;1.60;;;0.80;99.90;;;;;;4677181;30;21727;-78
2021/04/14 03:54:45;;;;;;;3.15;1.70;;;0.80;99.90;;;;;;4680886;30;20468;-78
2021/04/14 03:57:10;;;;;;;1.83;1.60;;;0.70;99.90;;;;;;4680283;30;20430;-79
2021/04/14 03:59:36;;;;;;;1.48;1.38;;;0.70;99.90;;;;;;4682954;30;20459;-78
2021/04/14 04:02:02;;;;;;;1.52;1.42;;;0.60;99.90;;;;;;4672933;30;20434;-79
2021/04/14 04:04:28;;;;;;;1.60;1.40;;;0.70;99.90;;;;;;4688397;30;20946;-79
2021/04/14 04:06:54;;;;;;;1.80;1.50;;;0.70;99.90;;;;;;4709802;30;20468;-79
2021/04/14 04:09:20;;;;;;;1.50;1.40;;;0.50;99.90;;;;;;4684529;30;20448;-78
2021/04/14 04:11:46;;;;;;;2.00;1.63;;;0.50;99.90;;;;;;4682312;30;20434;-78
2021/04/14 04:14:15;;;;;;;2.88;2.42;;;0.50;99.90;;;;;;4699201;30;20513;-78
2021/04/14 04:16:41;;;;;;;5.35;3.40;;;0.40;99.90;;;;;;4693868;30;20405;-80
2021/04/14 04:19:07;;;;;;;4.15;2.50;;;0.40;99.90;;;;;;4700180;30;20456;-78
2021/04/14 04:22:06;;;;;;;2.70;1.75;;;0.40;99.90;;;;;;4703701;30;20691;-78
2021/04/14 04:24:44;;;;;;;1.50;1.40;;;0.50;99.90;;;;;;4676214;30;20938;-79
2021/04/14 04:27:15;;;;;;;2.20;1.77;;;0.30;99.90;;;;;;4661304;30;20937;-79
2021/04/14 04:29:52;;;;;;;2.00;1.80;;;0.30;99.90;;;;;;4684188;30;20437;-79
2021/04/14 04:32:19;;;;;;;2.00;1.90;;;0.20;99.90;;;;;;4646410;30;20451;-79
2021/04/14 04:34:47;;;;;;;1.67;1.58;;;0.20;99.90;;;;;;4652610;30;20435;-80
2021/04/14 04:37:20;;;;;;;1.63;1.52;;;0.30;99.90;;;;;;4658226;30;20490;-80
2021/04/14 04:39:47;;;;;;;1.73;1.60;;;0.20;99.90;;;;;;4672373;30;20951;-78
2021/04/14 04:42:13;;;;;;;1.63;1.53;;;0.20;99.90;;;;;;4676259;30;20957;-79
2021/04/14 04:44:39;;;;;;;2.70;1.70;;;0.20;99.90;;;;;;4697896;30;20425;-80
2021/04/14 04:47:05;;;;;;;5.05;2.08;;;0.20;99.90;;;;;;4702045;30;20496;-79
2021/04/14 04:49:31;;;;;;;2.95;1.98;;;0.00;99.90;;;;;;4695709;30;20428;-80
2021/04/14 04:51:57;;;;;;;1.60;1.50;;;0.30;99.90;;;;;;4679302;30;20495;-81
2021/04/14 04:54:23;;;;;;;2.88;1.73;;;0.20;99.90;;;;;;4680152;30;20476;-81
2021/04/14 04:56:49;;;;;;;3.33;2.10;;;0.20;99.90;;;;;;4695478;30;20437;-79
2021/04/14 04:59:14;;;;;;;1.92;1.42;;;0.30;99.90;;;;;;4684545;30;20438;-79
2021/04/14 05:01:42;;;;;;;2.22;1.88;;;0.20;99.90;;;;;;4665052;30;20799;-80
2021/04/14 05:04:10;;;;;;;2.63;2.00;;;0.20;99.90;;;;;;4680464;30;20517;-80
2021/04/14 05:06:36;;;;;;;2.35;1.75;;;0.20;99.90;;;;;;4679036;30;20515;-80
2021/04/14 05:09:03;;;;;;;2.58;1.75;;;0.10;99.90;;;;;;4694749;30;20935;-82
2021/04/14 05:11:29;;;;;;;1.95;1.77;;;0.30;99.90;;;;;;4657264;30;20429;-79
2021/04/14 05:13:57;;;;;;;3.10;2.08;;;0.30;99.90;;;;;;4684387;30;20442;-80
2021/04/14 05:16:24;;;;;;;3.05;2.20;;;0.30;99.90;;;;;;4701979;30;20430;-81
2021/04/14 05:18:49;;;;;;;1.97;1.77;;;0.30;99.90;;;;;;4698309;24;20560;-78
2021/04/14 05:21:15;;;;;;;4.23;2.00;;;0.30;99.90;;;;;;4693873;30;20560;-78
2021/04/14 05:23:41;;;;;;;2.10;1.88;;;0.40;99.90;;;;;;4703466;30;20462;-79
2021/04/14 05:26:06;;;;;;;2.30;1.70;;;0.30;99.90;;;;;;4674793;30;20934;-78
2021/04/14 05:28:32;;;;;;;1.70;1.60;;;0.30;99.90;;;;;;4696624;30;20439;-78
2021/04/14 05:30:58;;;;;;;1.80;1.70;;;0.40;99.90;;;;;;4675547;30;20868;-78
2021/04/14 05:33:24;;;;;;;4.00;1.80;;;0.50;99.90;;;;;;4688700;30;20423;-78
2021/04/14 05:35:51;;;;;;;2.97;2.03;;;0.50;99.90;;;;;;4687120;30;20532;-78
2021/04/14 05:38:16;;;;;;;2.65;1.65;;;0.50;99.90;;;;;;4703990;30;20517;-78
2021/04/14 05:40:42;;;;;;;1.87;1.60;;;0.60;99.90;;;;;;4666277;30;20928;-77
2021/04/14 05:43:19;;;;;;;3.17;1.83;;;0.60;99.90;;;;;;4688019;30;20586;-77
2021/04/14 05:45:45;;;;;;;2.50;2.22;;;0.70;99.90;;;;;;4672781;30;20440;-77
2021/04/14 05:48:13;;;;;;;2.30;2.00;;;0.70;99.90;;;;;;4681356;30;21259;-78
2021/04/14 05:50:39;;;;;;;2.10;1.90;;;0.80;99.90;;;;;;4664156;30;20854;-77
2021/04/14 05:53:05;;;;;;;2.55;2.05;;;0.80;99.90;;;;;;4673262;30;20441;-78
2021/04/14 05:55:31;;;;;;;2.17;1.77;;;0.90;99.90;;;;;;4689631;30;20428;-78
2021/04/14 05:57:56;;;;;;;3.60;1.80;;;1.00;99.90;;;;;;4703207;30;20950;-78
2021/04/14 06:00:22;;;;;;;1.80;1.70;;;1.20;99.90;;;;;;4674891;30;20526;-77
2021/04/14 06:02:48;;;;;;;3.57;2.63;;;1.10;99.90;;;;;;4661516;30;20439;-77
2021/04/14 06:05:17;;;;;;;5.10;3.10;;;1.20;99.90;;;;;;4674437;30;20778;-77
2021/04/14 06:07:43;;;;;;;3.10;1.90;;;1.20;99.90;;;;;;4675323;30;20459;-77
2021/04/14 06:10:09;;;;;;;2.63;1.73;;;1.30;99.90;;;;;;4668525;30;20456;-77
2021/04/14 06:12:35;;;;;;;5.43;2.72;;;1.30;99.90;;;;;;4682646;30;21157;-78
2021/04/14 06:15:01;;;;;;;4.10;2.60;;;1.40;99.90;;;;;;4659527;30;20462;-77
2021/04/14 06:17:26;;;;;;;4.82;2.38;;;1.40;99.90;;;;;;4674196;30;20431;-77
2021/04/14 06:19:52;;;;;;;2.97;2.30;;;1.60;99.90;;;;;;4690261;30;20439;-77
2021/04/14 06:22:18;;;;;;;2.55;2.10;;;1.60;99.90;;;;;;4684057;30;20430;-78
2021/04/14 06:24:44;;;;;;;2.63;1.80;;;1.80;99.90;;;;;;4681161;30;20915;-77
2021/04/14 06:27:14;;;;;;;3.00;2.10;;;1.90;99.90;;;;;;4688968;30;20458;-78
2021/04/14 06:29:40;;;;;;;2.70;1.80;;;1.90;99.90;;;;;;4656663;30;20433;-78
2021/04/14 06:32:06;;;;;;;1.73;1.50;;;2.00;99.90;;;;;;4651408;30;20853;-79
2021/04/14 06:34:32;;;;;;;5.65;2.00;;;2.00;99.90;;;;;;4652382;30;20501;-78
2021/04/14 06:36:59;;;;;;;3.83;2.22;;;2.30;99.90;;;;;;4688511;30;20436;-78
2021/04/14 06:39:29;;;;;;;2.90;2.40;;;2.20;99.90;;;;;;4664577;30;20449;-78
2021/04/14 06:45:21;;;;;;;2.55;2.00;;;2.20;99.90;;;;;;4666328;30;20430;-77
2021/04/14 06:47:51;;;;;;;4.28;2.10;;;2.40;99.90;;;;;;4670372;30;20444;-78
2021/04/14 06:50:29;;;;;;;2.60;1.80;;;2.50;99.90;;;;;;4679754;30;20760;-78
2021/04/14 06:52:58;;;;;;;4.15;2.22;;;2.60;99.90;;;;;;4687221;30;20441;-78
2021/04/14 06:55:29;;;;;;;6.53;2.30;;;2.80;99.90;;;;;;4684310;30;20432;-78
2021/04/14 06:57:57;;;;;;;3.60;2.10;;;2.80;99.90;;;;;;4690692;30;20439;-78
2021/04/14 07:00:40;;;;;;;3.80;2.40;;;2.90;99.90;;;;;;4648561;30;20455;-77
2021/04/14 07:03:05;;;;;;;4.00;2.00;;;3.00;99.90;;;;;;4688336;30;20435;-77
2021/04/14 07:05:36;;;;;;;1.80;1.70;;;3.10;99.90;;;;;;4666993;30;20425;-77
2021/04/14 07:08:04;;;;;;;5.95;2.28;;;3.30;99.90;;;;;;4670917;30;20432;-78
2021/04/14 07:10:32;;;;;;;3.37;2.10;;;3.40;99.90;;;;;;4665948;30;20430;-78
2021/04/14 07:13:02;;;;;;;3.03;2.25;;;3.40;99.90;;;;;;4678290;30;20431;-77
2021/04/14 07:15:28;;;;;;;3.25;1.92;;;3.70;99.90;;;;;;4675161;30;20554;-78
2021/04/14 07:18:19;;;;;;;3.87;2.47;;;3.90;99.90;;;;;;4672952;30;20436;-78
2021/04/14 07:21:03;;;;;;;2.95;1.80;;;3.90;99.90;;;;;;4689598;30;21040;-78
2021/04/14 07:23:35;;;;;;;2.90;1.85;;;4.10;99.90;;;;;;4678049;30;20461;-77
2021/04/14 07:26:28;;;;;;;5.25;2.40;;;4.20;99.90;;;;;;4686636;30;20425;-78
2021/04/14 07:29:12;;;;;;;3.45;2.05;;;4.30;99.90;;;;;;4675928;30;20445;-77
2021/04/14 07:31:50;;;;;;;3.88;2.13;;;4.60;99.90;;;;;;4704207;30;20423;-79
2021/04/14 07:34:15;;;;;;;3.65;2.55;;;4.50;99.90;;;;;;4669734;30;20436;-77
2021/04/14 07:37:10;;;;;;;3.87;2.20;;;4.70;99.90;;;;;;4699754;30;20427;-78
2021/04/14 07:39:44;;;;;;;5.68;2.05;;;4.90;99.90;;;;;;4685206;30;20502;-77
2021/04/14 07:42:39;;;;;;;2.83;1.98;;;5.00;99.90;;;;;;4684806;30;20930;-78
2021/04/14 07:45:14;;;;;;;2.45;2.13;;;5.10;99.90;;;;;;4666981;30;20437;-78
2021/04/14 07:47:51;;;;;;;2.63;2.05;;;5.20;99.90;;;;;;4677760;30;20463;-77
2021/04/14 07:50:18;;;;;;;3.88;1.73;;;5.20;99.90;;;;;;4669462;30;20508;-78
2021/04/14 07:52:44;;;;;;;3.22;2.03;;;5.30;99.90;;;;;;4671121;30;20492;-76
2021/04/14 07:55:25;;;;;;;3.70;1.83;;;5.60;99.90;;;;;;4660353;30;20438;-78
2021/04/14 07:57:51;;;;;;;2.38;2.15;;;5.50;99.90;;;;;;4668600;30;20482;-78
2021/04/14 08:00:18;;;;;;;3.23;2.13;;;5.60;99.90;;;;;;4675240;30;20411;-79
2021/04/14 08:02:44;;;;;;;3.67;2.15;;;5.50;99.90;;;;;;4695607;30;20855;-78
2021/04/14 08:05:19;;;;;;;3.40;1.80;;;5.70;99.90;;;;;;4674666;30;20496;-77
2021/04/14 08:07:45;;;;;;;4.13;2.20;;;5.60;99.90;;;;;;4665539;30;20536;-77
2021/04/14 08:10:13;;;;;;;2.70;1.70;;;5.60;99.90;;;;;;4674399;30;20455;-77
2021/04/14 08:13:01;;;;;;;3.83;1.93;;;5.50;99.90;;;;;;4674550;30;20432;-78
2021/04/14 08:15:29;;;;;;;4.53;2.05;;;5.70;99.90;;;;;;4674641;30;20481;-78
2021/04/14 08:18:07;;;;;;;3.53;2.20;;;6.00;99.90;;;;;;4667126;30;20488;-78
2021/04/14 08:20:33;;;;;;;2.80;1.80;;;6.10;99.90;;;;;;4682373;30;20428;-78
2021/04/14 08:23:06;;;;;;;4.60;1.83;;;6.30;99.90;;;;;;4685490;30;20415;-76
2021/04/14 08:25:32;;;;;;;3.85;2.15;;;6.10;99.90;;;;;;4677031;30;20450;-78
2021/04/14 08:27:58;;;;;;;3.47;1.80;;;6.20;99.90;;;;;;4670325;30;20458;-77
2021/04/14 08:30:25;;;;;;;4.90;2.10;;;6.30;99.90;;;;;;4666829;30;20427;-78
2021/04/14 08:32:53;;;;;;;2.88;2.08;;;6.40;99.90;;;;;;4676481;30;20427;-78
2021/04/14 08:35:33;;;;;;;2.90;1.85;;;6.40;99.90;;;;;;4686631;30;20427;-78
2021/04/14 08:38:03;;;;;;;2.95;1.80;;;6.30;99.90;;;;;;4673786;30;20529;-77
2021/04/14 08:40:30;;;;;;;3.28;1.88;;;6.50;99.90;;;;;;4672739;30;20429;-79
2021/04/14 08:43:05;;;;;;;3.30;2.05;;;6.50;99.90;;;;;;4674730;30;20423;-78
2021/04/14 08:45:33;;;;;;;3.30;2.00;;;6.60;99.90;;;;;;4689208;30;20875;-79
2021/04/14 08:48:21;;;;;;;5.32;2.15;;;6.70;99.90;;;;;;4676279;30;20553;-78
2021/04/14 08:50:51;;;;;;;2.20;2.00;;;7.00;99.90;;;;;;4677295;30;20429;-77
2021/04/14 08:53:18;;;;;;;1.80;1.70;;;7.10;99.90;;;;;;4686057;30;20977;-79
2021/04/14 08:55:44;;;;;;;3.30;2.00;;;7.30;99.90;;;;;;4677337;30;20519;-78
2021/04/14 08:58:10;;;;;;;2.83;2.13;;;7.10;99.90;;;;;;4658084;30;20546;-79
2021/04/14 09:00:37;;;;;;;2.00;1.80;;;7.00;99.90;;;;;;4685104;30;20423;-78
2021/04/14 09:03:05;;;;;;;2.42;1.65;;;7.30;99.90;;;;;;4633685;30;20417;-78
2021/04/14 09:05:32;;;;;;;2.10;1.60;;;7.30;99.90;;;;;;4675591;30;20526;-78
2021/04/14 09:07:57;;;;;;;1.85;1.75;;;7.10;99.90;;;;;;4662731;30;20415;-78
2021/04/14 09:10:31;;;;;;;3.10;2.03;;;7.40;99.90;;;;;;4699991;30;20454;-79
2021/04/14 09:12:58;;;;;;;2.43;1.83;;;7.20;99.90;;;;;;4695001;30;20481;-78
2021/04/14 09:15:23;;;;;;;3.37;1.90;;;7.10;99.90;;;;;;4671174;30;20428;-79
2021/04/14 09:17:59;;;;;;;3.58;2.40;;;7.10;99.90;;;;;;4675916;30;20517;-78
2021/04/14 09:20:29;;;;;;;3.83;1.97;;;6.80;99.90;;;;;;4663486;30;20507;-79
2021/04/14 09:23:08;;;;;;;3.72;1.90;;;6.90;99.90;;;;;;4687911;30;20484;-78
2021/04/14 09:25:42;;;;;;;2.40;1.70;;;7.00;99.90;;;;;;4671860;30;20428;-77
2021/04/14 09:28:13;;;;;;;3.30;2.20;;;7.00;99.90;;;;;;4670293;30;20446;-77
2021/04/14 09:30:48;;;;;;;1.88;1.77;;;7.00;99.90;;;;;;4692470;30;20419;-78
2021/04/14 09:33:16;;;;;;;2.10;1.90;;;7.00;99.90;;;;;;4665711;30;20415;-78
2021/04/14 09:35:51;;;;;;;1.75;1.60;;;7.10;99.90;;;;;;4657096;30;20431;-78
2021/04/14 09:38:23;;;;;;;3.97;2.03;;;7.60;99.90;;;;;;4700988;30;21058;-78
2021/04/14 09:40:49;;;;;;;1.52;1.42;;;7.50;99.90;;;;;;4668627;30;20442;-79
2021/04/14 09:43:27;;;;;;;2.22;1.77;;;7.40;99.90;;;;;;4700714;30;20427;-79
2021/04/14 09:45:57;;;;;;;1.55;1.42;;;7.50;99.90;;;;;;4701704;30;20437;-79
2021/04/14 09:48:23;;;;;;;1.70;1.60;;;7.80;99.90;;;;;;4672917;30;20423;-78
2021/04/14 09:50:49;;;;;;;1.80;1.57;;;8.00;99.90;;;;;;4669576;30;20487;-77
2021/04/14 09:53:15;;;;;;;1.40;1.30;;;7.80;99.90;;;;;;4684333;30;20431;-78
2021/04/14 09:55:57;;;;;;;1.73;1.50;;;7.80;99.90;;;;;;4665616;30;21049;-79
2021/04/14 09:58:32;;;;;;;1.77;1.43;;;8.00;99.90;;;;;;4704176;30;20451;-78
2021/04/14 10:01:23;;;;;;;4.90;1.70;;;8.30;99.90;;;;;;4685418;30;20423;-79
2021/04/14 10:03:49;;;;;;;1.95;1.77;;;9.00;99.90;;;;;;4668756;30;20432;-78
2021/04/14 10:06:18;;;;;;;3.22;1.58;;;9.60;99.90;;;;;;4690880;30;20415;-78
2021/04/14 10:08:44;;;;;;;3.20;1.63;;;9.40;99.90;;;;;;4703817;30;20427;-77
2021/04/14 10:11:21;;;;;;;3.55;2.00;;;8.70;99.90;;;;;;4661207;30;20407;-77
2021/04/14 10:13:47;;;;;;;4.40;1.65;;;8.20;99.90;;;;;;4692273;30;20419;-79
2021/04/14 10:16:19;;;;;;;2.05;1.45;;;7.70;99.90;;;;;;4685339;30;20429;-78
2021/04/14 10:18:45;;;;;;;1.88;1.63;;;7.90;99.90;;;;;;4685777;30;20459;-79
2021/04/14 10:21:17;;;;;;;1.83;1.40;;;8.40;99.90;;;;;;4689297;30;20441;-78
2021/04/14 10:23:43;;;;;;;1.48;1.38;;;9.00;99.90;;;;;;4689279;30;20432;-77
2021/04/14 10:26:09;;;;;;;1.40;1.30;;;9.30;99.90;;;;;;4665552;30;20442;-78
2021/04/14 10:28:37;;;;;;;1.50;1.40;;;9.60;99.90;;;;;;4697306;30;20973;-78
2021/04/14 10:31:08;;;;;;;2.05;1.50;;;9.80;99.90;;;;;;4674237;30;21156;-78
2021/04/14 10:33:35;;;;;;;3.92;1.70;;;9.50;99.90;;;;;;4669243;30;20503;-78
2021/04/14 10:36:11;;;;;;;2.00;1.40;;;8.90;99.90;;;;;;4684464;30;20476;-78
2021/04/14 10:38:37;;;;;;;2.20;1.60;;;8.80;99.90;;;;;;4678149;30;20441;-79
2021/04/14 10:41:23;;;;;;;1.90;1.60;;;8.00;99.90;;;;;;4662193;30;20509;-78
2021/04/14 10:43:49;;;;;;;3.05;1.90;;;7.80;99.90;;;;;;4670621;30;20475;-78
2021/04/14 10:46:36;;;;;;;3.42;1.77;;;7.60;99.90;;;;;;4679879;30;20446;-78
2021/04/14 10:49:07;;;;;;;2.35;1.70;;;7.70;99.90;;;;;;4689029;30;20431;-78
2021/04/14 10:51:46;;;;;;;1.45;1.30;;;7.70;99.90;;;;;;4679744;30;20423;-79
2021/04/14 10:54:13;;;;;;;1.60;1.50;;;7.90;99.90;;;;;;4685014;30;20435;-79
2021/04/14 10:56:39;;;;;;;2.80;1.58;;;8.10;99.90;;;;;;4675009;30;20910;-79
2021/04/14 10:59:12;;;;;;;1.73;1.40;;;8.30;99.90;;;;;;4670299;30;20439;-79
2021/04/14 11:01:43;;;;;;;3.55;1.60;;;8.50;99.90;;;;;;4665178;30;20434;-78
2021/04/14 11:04:15;;;;;;;2.45;2.03;;;9.00;99.90;;;;;;4675718;30;20520;-79
2021/04/14 11:06:44;;;;;;;1.70;1.48;;;9.30;99.90;;;;;;4704297;30;20567;-79
2021/04/14 11:09:10;;;;;;;2.17;1.67;;;9.10;99.90;;;;;;4691957;30;20542;-79
2021/04/14 11:11:36;;;;;;;2.33;1.60;;;8.70;99.90;;;;;;4673461;30;20506;-79
2021/04/14 11:14:04;;;;;;;1.85;1.60;;;8.10;99.90;;;;;;4689307;30;20423;-78
2021/04/14 11:16:31;;;;;;;1.55;1.45;;;8.10;99.90;;;;;;4696144;30;20419;-78
2021/04/14 11:18:57;;;;;;;1.55;1.45;;;8.10;99.90;;;;;;4673002;30;20445;-79
2021/04/14 11:21:29;;;;;;;2.03;1.45;;;8.10;99.90;;;;;;4689145;30;21089;-79
2021/04/14 11:24:09;;;;;;;1.80;1.50;;;8.20;99.90;;;;;;4677634;30;20429;-80
2021/04/14 11:26:36;;;;;;;4.25;1.60;;;8.40;99.90;;;;;;4675060;30;20440;-80
2021/04/14 11:29:02;;;;;;;1.80;1.50;;;8.40;99.90;;;;;;4675837;30;20436;-80
2021/04/14 11:31:34;;;;;;;2.40;1.23;;;8.50;99.90;;;;;;4663215;30;22234;-80
2021/04/14 11:34:01;;;;;;;1.70;1.40;;;8.60;99.90;;;;;;4677137;30;20427;-80
2021/04/14 11:36:30;;;;;;;1.52;1.30;;;8.80;99.90;;;;;;4680341;30;20941;-80
2021/04/14 11:39:17;;;;;;;1.20;1.10;;;8.80;99.90;;;;;;4694006;30;20520;-79
2021/04/14 11:41:44;;;;;;;2.65;1.30;;;8.80;99.90;;;;;;4679322;30;20794;-80
2021/04/14 11:44:22;;;;;;;4.23;1.50;;;9.00;99.90;;;;;;4688846;30;20437;-80
2021/04/14 11:47:00;;;;;;;1.65;1.35;;;9.30;99.90;;;;;;4679486;30;20435;-80
2021/04/14 11:49:36;;;;;;;1.92;1.50;;;9.00;99.90;;;;;;4679341;30;20435;-80
2021/04/14 11:52:22;;;;;;;2.03;1.45;;;8.90;99.90;;;;;;4704772;30;20555;-80
2021/04/14 11:54:48;;;;;;;1.63;1.52;;;8.60;99.90;;;;;;4677710;30;20440;-81
2021/04/14 11:57:22;;;;;;;3.10;1.40;;;8.30;99.90;;;;;;4664274;30;20425;-79
2021/04/14 11:59:49;;;;;;;1.40;1.30;;;8.50;99.90;;;;;;4689961;30;20441;-80
2021/04/14 12:05:07;;;;;;;2.47;1.30;;;8.60;99.90;;;;;;4703301;30;20417;-80
2021/04/14 12:07:34;;;;;;;1.42;1.33;;;8.60;99.90;;;;;;4686919;30;20417;-81
2021/04/14 12:09:59;;;;;;;1.90;1.33;;;9.00;99.90;;;;;;4705826;30;20409;-81
2021/04/14 12:12:25;;;;;;;1.30;1.20;;;9.10;99.90;;;;;;4693719;30;20533;-80
2021/04/14 12:14:52;;;;;;;1.50;1.40;;;8.80;99.90;;;;;;4679918;30;20439;-81
2021/04/14 12:17:18;;;;;;;1.38;1.20;;;8.50;99.90;;;;;;4697593;30;20418;-81
2021/04/14 12:19:44;;;;;;;1.58;1.48;;;8.50;99.90;;;;;;4673141;30;20430;-81
2021/04/14 12:22:11;;;;;;;1.40;1.30;;;8.80;99.90;;;;;;4700570;30;20429;-80
2021/04/14 12:24:37;;;;;;;3.70;1.38;;;9.10;99.90;;;;;;4679864;30;20419;-81
2021/04/14 12:27:07;;;;;;;1.80;1.35;;;9.10;99.90;;;;;;4689531;30;20440;-80
2021/04/14 12:29:34;;;;;;;1.13;1.13;;;9.40;99.90;;;;;;4677758;30;20431;-79
2021/04/14 12:32:01;;;;;;;1.55;1.10;;;9.40;99.90;;;;;;4687113;30;20435;-80
2021/04/14 12:34:26;;;;;;;1.50;1.30;;;9.40;99.90;;;;;;4713005;30;20478;-80
2021/04/14 12:36:52;;;;;;;0.90;0.90;;;9.30;99.90;;;;;;4690096;30;20471;-80
2021/04/14 12:39:18;;;;;;;0.98;0.98;;;9.30;99.90;;;;;;4676334;30;20447;-80
2021/04/14 12:41:44;;;;;;;1.10;1.00;;;9.50;98.60;;;;;;4696468;30;20481;-81
2021/04/14 12:44:11;;;;;;;1.08;0.90;;;9.60;96.30;;;;;;4666492;30;20431;-81
2021/04/14 12:46:43;;;;;;;1.10;1.10;;;9.70;95.70;;;;;;4689132;30;20480;-81
2021/04/14 12:49:11;;;;;;;1.40;1.10;;;9.60;95.10;;;;;;4681601;30;20482;-80
2021/04/14 12:51:43;;;;;;;0.90;0.90;;;9.40;97.40;;;;;;4688689;30;20450;-80
2021/04/14 12:54:36;;;;;;;1.10;1.00;;;9.40;99.50;;;;;;4697392;30;20422;-80
2021/04/14 12:57:13;;;;;;;1.15;1.00;;;9.50;97.90;;;;;;4690473;30;20433;-81
2021/04/14 12:59:42;;;;;;;1.13;1.13;;;9.70;97.50;;;;;;4698017;30;20516;-82
2021/04/14 13:02:19;;;;;;;2.33;1.42;;;9.80;99.90;;;;;;4675056;30;20426;-88
2021/04/14 13:05:15;;;;;;;2.33;2.13;;;9.70;99.90;;;;;;4675206;30;20436;-83
2021/04/14 13:08:11;;;;;;;2.27;1.70;;;9.70;99.90;;;;;;4691498;30;20423;-88
2021/04/14 13:11:04;;;;;;;2.05;1.80;;;9.80;99.90;;;;;;4661054;30;20461;-90
2021/04/14 13:13:33;;;;;;;1.48;1.30;;;9.70;99.90;;;;;;4680995;30;20461;-83